Flight Track Log - Related Links

Times and Time Zones

All times are in EDT time to prevent confusion due to time zone crossing. See the SWA3516 flight status page for this flight to view local times or setup timezone preferences in your user account.

Time Position Orientation Groundspeed Altitude Reporting Facility
EDT Latitude Longitude Course Direction KTS MPH feet Rate Location/Type
Fri 10:11:19 PM 39.1342 -76.6111 117° Southeast 167 192 7,500  Level Washington Center
Fri 10:12:19 PM 39.1392 -76.5069 86° East 245 282 10,600 2,800 Climbing Washington Center
Fri 10:13:19 PM 39.1422 -76.3811 88° East 288 331 13,100 2,218 Climbing Washington Center
Fri 10:14:18 PM 39.1447 -76.2767 88° East 326 375 15,000 2,700 Climbing Washington Center
Fri 10:15:19 PM 39.1664 -76.1136 80° East 359 413 18,500 3,098 Climbing Washington Center
Fri 10:16:20 PM 39.1817 -75.9692 82° East 393 452 21,300 2,269 Climbing Washington Center
Fri 10:17:18 PM 39.2258 -75.8353 67° East 399 459 23,000 1,866 Climbing Washington Center
Fri 10:18:19 PM 39.3072 -75.7311 45° Northeast 392 451 25,000 984 Climbing Washington Center
Fri 10:19:20 PM 39.3969 -75.6344 40° Northeast 409 471 25,000 252 Level Washington Center
Fri 10:20:18 PM 39.4906 -75.5511 34° Northeast 398 458 25,500 1,361 Climbing Washington Center
Fri 10:21:19 PM 39.5906 -75.4650 34° Northeast 412 474 27,700 2,281 Climbing Washington Center
Fri 10:22:19 PM 39.6883 -75.3786 34° Northeast 417 480 30,100 2,420 Climbing Washington Center
Fri 10:23:18 PM 39.7694 -75.2650 47° Northeast 417 480 32,500 1,349 Climbing Washington Center
Fri 10:24:28 PM 39.8433 -75.1319 54° Northeast 424 488 33,000 231 Climbing New York Center
Fri 10:25:28 PM 39.9164 -75.0092 52° Northeast 432 497 33,000  Level New York Center
Fri 10:26:29 PM 40.0108 -74.8767 47° Northeast 437 503 33,000  Level New York Center
Fri 10:27:29 PM 40.0836 -74.7617 50° Northeast 424 488 33,000  Level New York Center
Fri 10:28:30 PM 40.1581 -74.6547 48° Northeast 424 488 33,000  Level New York Center
Fri 10:29:28 PM 40.2369 -74.5367 49° Northeast 429 494 33,000  Level New York Center
Fri 10:30:28 PM 40.3267 -74.4000 49° Northeast 434 499 33,000  Level New York Center
Fri 10:31:29 PM 40.4075 -74.2789 49° Northeast 434 499 33,000  Level New York Center
Fri 10:33:31 PM 40.5656 -74.0356 49° Northeast 465 535 33,000  Level Boston Center
Fri 10:34:31 PM 40.6547 -73.9144 46° Northeast 442 509 33,000  Level Boston Center
Fri 10:35:43 PM 40.7333 -73.7903 50° Northeast 437 503 33,000  Level Boston Center
Fri 10:36:43 PM 40.8206 -73.6469 51° Northeast 443 510 33,000  Level Boston Center
Fri 10:37:43 PM 40.9008 -73.5219 50° Northeast 443 510 33,000  Level Boston Center
Fri 10:38:43 PM 40.9792 -73.3994 50° Northeast 443 510 33,000  Level Boston Center
Fri 10:39:43 PM 41.0592 -73.2825 48° Northeast 437 503 33,000  Level Boston Center
Fri 10:40:43 PM 41.1414 -73.1594 48° Northeast 432 497 33,000  Level Boston Center
Fri 10:41:43 PM 41.2111 -73.0222 56° Northeast 432 497 33,000  Level Boston Center
Fri 10:42:43 PM 41.2867 -72.8628 58° Northeast 450 518 33,000  Level Boston Center
Fri 10:43:43 PM 41.3517 -72.7222 58° Northeast 450 518 33,000  Level Boston Center
Fri 10:44:43 PM 41.4186 -72.5783 58° Northeast 450 518 33,000  Level Boston Center
Fri 10:45:43 PM 41.4833 -72.4344 59° Northeast 450 518 33,000  Level Boston Center
Fri 10:46:43 PM 41.5458 -72.2931 59° Northeast 450 518 33,000  Level Boston Center
Fri 10:47:43 PM 41.6122 -72.1514 58° Northeast 450 518 33,000  Level Boston Center
Fri 10:48:43 PM 41.6786 -72.0092 58° Northeast 450 518 33,000  Level Boston Center
Fri 10:49:43 PM 41.7403 -71.8669 60° Northeast 450 518 33,000  Level Boston Center
Fri 10:50:43 PM 41.8125 -71.7325 54° Northeast 450 518 33,000  Level Boston Center
Fri 10:51:43 PM 41.9036 -71.6172 43° Northeast 445 512 33,000 -200 Level Boston Center
Fri 10:52:43 PM 41.9964 -71.5100 41° Northeast 435 501 32,600 -700 Descending Boston Center
Fri 10:53:43 PM 42.0892 -71.3967 42° Northeast 435 501 31,600 -950 Descending Boston Center
Fri 10:54:43 PM 42.1839 -71.2772 43° Northeast 446 513 30,700 -1,500 Descending Boston Center
Fri 10:55:43 PM 42.2764 -71.1606 43° Northeast 451 519 28,600 -2,550 Descending Boston Center
Fri 10:56:43 PM 42.3689 -71.0464 42° Northeast 451 519 25,600 -2,350 Descending Boston Center
Fri 10:57:43 PM 42.4550 -70.9317 44° Northeast 440 506 23,900 -800 Descending Boston Center
Fri 10:58:43 PM 42.5308 -70.8314 44° Northeast 415 478 24,000 -400 Climbing Boston Center
Fri 10:59:43 PM 42.6106 -70.7306 43° Northeast 393 452 23,100 -1,400 Descending Boston Center
Fri 11:00:43 PM 42.6864 -70.6408 41° Northeast 381 438 21,200 -1,900 Descending Boston Center
Fri 11:01:43 PM 42.7769 -70.5789 27° Northeast 364 419 19,300 -1,750 Descending Boston Center
Fri 11:02:43 PM 42.8575 -70.5311 23° Northeast 354 407 17,700 -1,800 Descending Boston Center
Fri 11:03:43 PM 42.9522 -70.4714 25° Northeast 348 400 15,700 -1,950 Descending Boston Center
Fri 11:04:43 PM 43.0389 -70.4089 28° Northeast 343 395 13,800 -1,800 Descending Boston Center
Fri 11:05:43 PM 43.1169 -70.3439 31° Northeast 338 389 12,100 -1,450 Descending Boston Center
Fri 11:06:43 PM 43.1947 -70.2756 33° Northeast 327 376 10,900 -1,250 Descending Boston Center
Fri 11:07:43 PM 43.2644 -70.2161 32° Northeast 306 352 9,600 -1,800 Descending Boston Center
Fri 11:08:43 PM 43.3367 -70.1736 23° Northeast 282 325 7,300 -2,100 Descending Boston Center
Fri 11:09:43 PM 43.4111 -70.1536 11° North 272 313 5,400 -2,050 Descending Boston Center
Fri 11:10:43 PM 43.4858 -70.1392 North 272 313 3,200 -1,650 Descending Boston Center
Fri 11:11:43 PM 43.5481 -70.1225 11° North 252 290 2,100 -750 Descending Boston Center
Fri 11:12:43 PM 43.5922 -70.1353 348° North 177 204 1,700 -200 Descending Boston Center
Fri 11:13:43 PM 43.6242 -70.1714 321° Northwest 151 174 1,700 -250 Level Boston Center
Fri 11:14:43 PM 43.6375 -70.2167 292° West 138 159 1,200 -455 Descending Boston Center
Fri 11:15:55 PM 43.6425 -70.2597 279° West 125 144 700 -500 Descending Boston Center
Fri 11:16:55 PM 43.6458 -70.3169 275° West 120 138 100 5,150 Descending Boston Center
Fri 11:17:55 PM 43.6467 -70.3656 271° West 120 138 11,000 5,450 Climbing Boston Center
Fri 11:18:55 PM 43.6475 -70.4172 271° West 120 138 11,000  Level Boston Center
Fri 11:19:55 PM 43.6483 -70.4658 271° West 120 138 11,000  Level Boston Center
Fri 11:20:55 PM 43.6492 -70.5061 272° West 120 138 11,000  Level Boston Center
Fri 11:22:00 PM 43.6460 -70.3279 101° East  Level Estimated
Fri 11:29:00 PM 43.6456 -70.3086 101° East  Level Estimated
Fri 11:30:00 PM 43.6456 -70.3086 101° East  Level Estimated
Fri 11:31:00 PM 43.6456 -70.3086 101° East  Level Estimated

Login

Don't have an account? Register now (free) for customized features, flight alerts, and more!